createdAt,value
2017-09-28T00:00:03.885Z,15.25
2017-09-28T00:01:04.523Z,15.19
2017-09-28T00:02:03.884Z,15.1
2017-09-28T00:03:04.213Z,15.18
2017-09-28T00:04:04.191Z,15.18
2017-09-28T00:05:04.191Z,15.1
2017-09-28T00:06:04.186Z,15.06
2017-09-28T00:07:04.499Z,15.11
2017-09-28T00:08:03.881Z,15.02
2017-09-28T00:09:04.192Z,15.15
2017-09-28T00:10:04.192Z,15.04
2017-09-28T00:11:04.501Z,15.02
2017-09-28T00:12:03.878Z,15.14
2017-09-28T00:13:04.497Z,15.03
2017-09-28T00:14:04.196Z,15.06
2017-09-28T00:15:04.499Z,15.02
2017-09-28T00:16:04.526Z,15.04
2017-09-28T00:17:04.498Z,15.02
2017-09-28T00:18:04.202Z,15.02
2017-09-28T00:19:04.511Z,15.06
2017-09-28T00:20:04.505Z,14.97
2017-09-28T00:21:04.191Z,15.02
2017-09-28T00:22:04.191Z,15.11
2017-09-28T00:23:04.187Z,14.96
2017-09-28T00:24:04.493Z,14.92
2017-09-28T00:25:04.196Z,15.02
2017-09-28T00:26:04.499Z,15.03
2017-09-28T00:27:04.497Z,15
2017-09-28T00:28:04.494Z,14.97
2017-09-28T00:29:04.495Z,14.97
2017-09-28T00:30:05.564Z,14.94
2017-09-28T00:31:04.183Z,14.92
2017-09-28T00:32:04.188Z,14.94
2017-09-28T00:33:04.495Z,14.91
2017-09-28T00:34:03.872Z,14.89
2017-09-28T00:35:04.188Z,14.85
2017-09-28T00:36:04.177Z,14.86
2017-09-28T00:37:04.504Z,14.91
2017-09-28T00:38:04.181Z,14.89
2017-09-28T00:39:04.181Z,14.85
2017-09-28T00:40:04.537Z,14.85
2017-09-28T00:41:04.498Z,14.85
2017-09-28T00:42:04.498Z,14.92
2017-09-28T00:43:04.482Z,14.84
2017-09-28T00:44:04.502Z,14.81
2017-09-28T00:45:04.178Z,14.82
2017-09-28T00:46:04.183Z,14.78
2017-09-28T00:47:04.485Z,14.86
2017-09-28T00:48:03.863Z,14.84
2017-09-28T00:49:04.479Z,14.91
2017-09-28T00:50:04.178Z,14.77
2017-09-28T00:51:04.177Z,14.77
2017-09-28T00:52:04.491Z,14.86
2017-09-28T00:53:04.479Z,14.73
2017-09-28T00:54:04.478Z,14.84
2017-09-28T00:55:04.477Z,14.82
2017-09-28T00:56:04.484Z,14.82
2017-09-28T00:57:04.174Z,14.73
2017-09-28T00:58:04.476Z,14.7
2017-09-28T00:59:04.474Z,14.79
2017-09-28T01:00:10.869Z,14.7
2017-09-28T01:01:04.476Z,14.81
2017-09-28T01:02:04.483Z,14.68
2017-09-28T01:03:04.168Z,14.7
2017-09-28T01:04:04.479Z,14.78
2017-09-28T01:05:04.164Z,14.78
2017-09-28T01:06:04.488Z,14.77
2017-09-28T01:07:04.168Z,14.69
2017-09-28T01:08:04.169Z,14.65
2017-09-28T01:09:04.480Z,14.68
2017-09-28T01:10:04.168Z,14.66
2017-09-28T01:11:04.467Z,14.68
2017-09-28T01:12:04.468Z,14.62
2017-09-28T01:13:04.169Z,14.58
2017-09-28T01:14:04.160Z,14.55
2017-09-28T01:15:04.467Z,14.6
2017-09-28T01:16:03.848Z,14.59
2017-09-28T01:17:04.470Z,14.51
2017-09-28T01:18:04.162Z,14.48
2017-09-28T01:19:04.165Z,14.5
2017-09-28T01:20:04.468Z,14.43
2017-09-28T01:21:04.476Z,14.5
2017-09-28T01:22:04.462Z,14.55
2017-09-28T01:23:04.152Z,14.44
2017-09-28T01:24:04.469Z,14.44
2017-09-28T01:25:04.462Z,14.51
2017-09-28T01:26:05.273Z,14.45
2017-09-28T01:27:04.462Z,14.37
2017-09-28T01:28:04.151Z,14.41
2017-09-28T01:29:04.459Z,14.45
2017-09-28T01:30:03.840Z,14.5
2017-09-28T01:31:05.761Z,14.5
2017-09-28T01:32:04.178Z,14.45
2017-09-28T01:33:04.170Z,14.47
2017-09-28T01:34:04.139Z,14.5
2017-09-28T01:35:04.142Z,14.51
2017-09-28T01:36:04.138Z,14.41
2017-09-28T01:37:04.450Z,14.51
2017-09-28T01:38:04.451Z,14.55
2017-09-28T01:39:04.138Z,14.58
2017-09-28T01:40:04.137Z,14.58
2017-09-28T01:41:04.155Z,14.58
2017-09-28T01:42:04.135Z,14.58
2017-09-28T01:43:04.442Z,14.58
2017-09-28T01:44:04.444Z,14.59
2017-09-28T01:45:03.823Z,14.62
2017-09-28T01:46:04.499Z,14.53
2017-09-28T01:47:04.444Z,14.54
2017-09-28T01:48:04.130Z,14.6
2017-09-28T01:49:04.444Z,14.58
2017-09-28T01:50:04.126Z,14.55
2017-09-28T01:51:04.449Z,14.53
2017-09-28T01:52:04.442Z,14.63
2017-09-28T01:53:04.443Z,14.51
2017-09-28T01:54:04.437Z,14.54
2017-09-28T01:55:04.443Z,14.58
2017-09-28T01:56:04.439Z,14.51
2017-09-28T01:57:04.442Z,14.53
2017-09-28T01:58:04.130Z,14.54
2017-09-28T01:59:03.814Z,14.59
2017-09-28T02:00:04.431Z,14.51
2017-09-28T02:01:05.730Z,14.51
2017-09-28T02:02:04.118Z,14.54
2017-09-28T02:03:04.427Z,14.59
2017-09-28T02:04:04.428Z,14.51
2017-09-28T02:05:04.421Z,14.6
2017-09-28T02:06:04.418Z,14.58
2017-09-28T02:07:04.436Z,14.51
2017-09-28T02:08:04.420Z,14.54
2017-09-28T02:09:04.112Z,14.58
2017-09-28T02:10:04.418Z,14.5
2017-09-28T02:11:04.419Z,14.54
2017-09-28T02:12:04.421Z,14.54
2017-09-28T02:13:04.420Z,14.58
2017-09-28T02:14:04.417Z,14.54
2017-09-28T02:15:04.106Z,14.6
2017-09-28T02:16:04.100Z,14.58
2017-09-28T02:17:04.105Z,14.6
2017-09-28T02:18:04.104Z,14.6
2017-09-28T02:19:04.102Z,14.51
2017-09-28T02:20:04.413Z,14.59
2017-09-28T02:21:04.408Z,14.54
2017-09-28T02:22:04.441Z,14.51
2017-09-28T02:23:04.102Z,14.58
2017-09-28T02:24:04.411Z,14.48
2017-09-28T02:25:04.094Z,14.55
2017-09-28T02:26:04.406Z,14.54
2017-09-28T02:27:04.401Z,14.53
2017-09-28T02:28:04.406Z,14.54
2017-09-28T02:29:04.091Z,14.58
2017-09-28T02:30:04.094Z,14.59
2017-09-28T02:31:04.411Z,14.55
2017-09-28T02:32:03.785Z,14.6
2017-09-28T02:33:04.398Z,14.51
2017-09-28T02:34:04.091Z,14.48
2017-09-28T02:35:04.404Z,14.48
2017-09-28T02:36:04.404Z,14.53
2017-09-28T02:37:04.442Z,14.41
2017-09-28T02:38:04.088Z,14.41
2017-09-28T02:39:04.089Z,14.41
2017-09-28T02:40:04.111Z,14.41
2017-09-28T02:41:04.409Z,14.33
2017-09-28T02:42:04.080Z,14.35
2017-09-28T02:43:04.391Z,14.32
2017-09-28T02:44:04.079Z,14.32
2017-09-28T02:45:04.385Z,14.35
2017-09-28T02:46:04.384Z,14.35
2017-09-28T02:47:04.389Z,14.35
2017-09-28T02:48:04.073Z,14.32
2017-09-28T02:49:04.386Z,14.29
2017-09-28T02:50:04.390Z,14.22
2017-09-28T02:51:04.379Z,14.17
2017-09-28T02:52:04.076Z,14.25
2017-09-28T02:53:04.384Z,14.22
2017-09-28T02:54:04.379Z,14.28
2017-09-28T02:55:04.065Z,14.22
2017-09-28T02:56:04.381Z,14.22
2017-09-28T02:57:04.063Z,14.2
2017-09-28T02:58:04.061Z,14.2
2017-09-28T02:59:04.380Z,14.22
2017-09-28T03:00:04.374Z,14.25
2017-09-28T03:01:03.759Z,14.2
2017-09-28T03:02:04.370Z,14.25
2017-09-28T03:03:04.071Z,14.35
2017-09-28T03:04:04.370Z,14.35
2017-09-28T03:05:04.363Z,14.35
2017-09-28T03:06:04.056Z,14.35
2017-09-28T03:07:04.358Z,14.32
2017-09-28T03:08:04.054Z,14.28
2017-09-28T03:09:04.056Z,14.37
2017-09-28T03:10:04.060Z,14.28
2017-09-28T03:11:04.050Z,14.32
2017-09-28T03:12:04.358Z,14.36
2017-09-28T03:13:04.357Z,14.23
2017-09-28T03:14:04.046Z,14.3
2017-09-28T03:15:04.043Z,14.29
2017-09-28T03:16:04.045Z,14.23
2017-09-28T03:17:04.054Z,14.3
2017-09-28T03:18:04.356Z,14.33
2017-09-28T03:19:04.351Z,14.35
2017-09-28T03:20:04.046Z,14.36
2017-09-28T03:21:04.349Z,14.36
2017-09-28T03:22:04.047Z,14.35
2017-09-28T03:23:03.731Z,14.23
2017-09-28T03:24:04.045Z,14.35
2017-09-28T03:25:04.039Z,14.32
2017-09-28T03:26:04.340Z,14.35
2017-09-28T03:27:04.344Z,14.23
2017-09-28T03:28:03.728Z,14.3
2017-09-28T03:29:04.337Z,14.26
2017-09-28T03:30:04.335Z,14.23
2017-09-28T03:31:04.338Z,14.3
2017-09-28T03:32:04.028Z,14.33
2017-09-28T03:33:04.032Z,14.37
2017-09-28T03:34:04.024Z,14.37
2017-09-28T03:35:04.334Z,14.3
2017-09-28T03:36:04.034Z,14.32
2017-09-28T03:37:04.331Z,14.33
2017-09-28T03:38:04.023Z,14.35
2017-09-28T03:39:04.026Z,14.33
2017-09-28T03:40:04.040Z,14.18
2017-09-28T03:41:04.340Z,14.26
2017-09-28T03:42:04.326Z,14.28
2017-09-28T03:43:04.022Z,14.22
2017-09-28T03:44:04.020Z,14.25
2017-09-28T03:45:04.320Z,14.2
2017-09-28T03:46:04.330Z,14.2
2017-09-28T03:47:05.622Z,14.2
2017-09-28T03:48:04.330Z,14.23
2017-09-28T03:49:04.018Z,14.22
2017-09-28T03:50:04.015Z,14.23
2017-09-28T03:51:04.009Z,14.25
2017-09-28T03:52:03.705Z,14.3
2017-09-28T03:53:04.312Z,14.2
2017-09-28T03:54:04.005Z,14.18
2017-09-28T03:55:04.013Z,14.32
2017-09-28T03:56:04.319Z,14.26
2017-09-28T03:57:04.000Z,14.22
2017-09-28T03:58:03.999Z,14.23
2017-09-28T03:59:03.701Z,14.18
2017-09-28T04:00:04.309Z,14.18
2017-09-28T04:01:03.999Z,14.18
2017-09-28T04:02:04.297Z,14.2
2017-09-28T04:03:04.318Z,14.2
2017-09-28T04:04:03.997Z,14.28
2017-09-28T04:05:04.001Z,14.2
2017-09-28T04:06:04.026Z,14.23
2017-09-28T04:07:03.990Z,14.18
2017-09-28T04:08:03.681Z,14.18
2017-09-28T04:09:03.685Z,14.17
2017-09-28T04:10:03.991Z,14.23
2017-09-28T04:11:04.294Z,14.22
2017-09-28T04:12:04.291Z,14.22
2017-09-28T04:13:04.291Z,14.22
2017-09-28T04:14:04.298Z,14.18
2017-09-28T04:15:04.002Z,14.22
2017-09-28T04:16:04.294Z,14.17
2017-09-28T04:17:04.291Z,14.22
2017-09-28T04:18:03.982Z,14.15
2017-09-28T04:19:03.998Z,14.22
2017-09-28T04:20:04.299Z,14.14
2017-09-28T04:21:03.978Z,14.2
2017-09-28T04:22:03.974Z,14.17
2017-09-28T04:23:04.279Z,14.11
2017-09-28T04:24:03.969Z,14.15
2017-09-28T04:25:03.970Z,14.15
2017-09-28T04:26:03.977Z,14.05
2017-09-28T04:27:03.682Z,14.08
2017-09-28T04:28:03.668Z,14.14
2017-09-28T04:29:03.965Z,14.03
2017-09-28T04:30:04.274Z,14.07
2017-09-28T04:31:04.280Z,14.05
2017-09-28T04:32:05.552Z,14.11
2017-09-28T04:33:03.968Z,14.05
2017-09-28T04:34:04.275Z,14.08
2017-09-28T04:35:03.975Z,14.08
2017-09-28T04:36:03.965Z,14.1
2017-09-28T04:37:03.957Z,14.18
2017-09-28T04:38:03.955Z,14.17
2017-09-28T04:39:03.960Z,14.17
2017-09-28T04:40:03.967Z,14.2
2017-09-28T04:41:03.966Z,14.22
2017-09-28T04:42:03.962Z,14.18
2017-09-28T04:43:03.661Z,14.18
2017-09-28T04:44:04.264Z,14.22
2017-09-28T04:45:05.149Z,14.22
2017-09-28T04:46:03.963Z,14.23
2017-09-28T04:47:03.958Z,14.28
2017-09-28T04:48:03.959Z,14.26
2017-09-28T04:49:04.257Z,14.23
2017-09-28T04:50:03.948Z,14.26
2017-09-28T04:51:04.246Z,14.22
2017-09-28T04:52:03.938Z,14.28
2017-09-28T04:53:04.253Z,14.26
2017-09-28T04:54:04.252Z,14.28
2017-09-28T04:55:03.952Z,14.28
2017-09-28T04:56:03.969Z,14.29
2017-09-28T04:57:03.938Z,14.2
2017-09-28T04:58:03.947Z,14.23
2017-09-28T04:59:03.932Z,14.17
2017-09-28T05:00:03.947Z,14.17
2017-09-28T05:01:04.250Z,14.17
2017-09-28T05:02:05.891Z,14.2
2017-09-28T05:03:04.265Z,14.12
2017-09-28T05:04:03.928Z,14.11
2017-09-28T05:05:03.938Z,14.12
2017-09-28T05:06:03.935Z,14.17
2017-09-28T05:07:04.242Z,14.11
2017-09-28T05:08:03.940Z,14.08
2017-09-28T05:09:03.938Z,14.12
2017-09-28T05:10:03.617Z,14.1
2017-09-28T05:11:04.235Z,14.1
2017-09-28T05:12:03.949Z,14.08
2017-09-28T05:13:03.947Z,14.07
2017-09-28T05:14:03.915Z,14.2
2017-09-28T05:15:04.236Z,14.15
2017-09-28T05:16:03.923Z,14.15
2017-09-28T05:17:03.916Z,14.17
2017-09-28T05:18:03.910Z,14.17
2017-09-28T05:19:03.947Z,14.17
2017-09-28T05:20:03.601Z,14.17
2017-09-28T05:21:04.221Z,14.2
2017-09-28T05:22:03.604Z,14.17
2017-09-28T05:23:03.906Z,14.18
2017-09-28T05:24:04.223Z,14.12
2017-09-28T05:25:03.904Z,14.14
2017-09-28T05:26:03.901Z,14.12
2017-09-28T05:27:03.902Z,14.14
2017-09-28T05:28:04.223Z,14.12
2017-09-28T05:29:03.604Z,14.17
2017-09-28T05:30:03.895Z,14.14
2017-09-28T05:31:04.210Z,14.07
2017-09-28T05:32:04.210Z,14.04
2017-09-28T05:33:07.558Z,14.03
2017-09-28T05:34:03.896Z,14.15
2017-09-28T05:35:03.899Z,14.07
2017-09-28T05:36:03.590Z,14.17
2017-09-28T05:37:03.891Z,14.11
2017-09-28T05:38:03.890Z,14.11
2017-09-28T05:39:04.199Z,14.07
2017-09-28T05:40:03.577Z,14.12
2017-09-28T05:41:04.191Z,14.17
2017-09-28T05:42:04.191Z,14.12
2017-09-28T05:43:04.193Z,14.17
2017-09-28T05:44:03.917Z,14.18
2017-09-28T05:45:04.194Z,14.18
2017-09-28T05:46:04.197Z,14.17
2017-09-28T05:47:03.582Z,14.22
2017-09-28T05:48:05.991Z,14.17
2017-09-28T05:49:03.877Z,14.26
2017-09-28T05:50:04.182Z,14.22
2017-09-28T05:51:03.870Z,14.23
2017-09-28T05:52:04.190Z,14.25
2017-09-28T05:53:04.191Z,14.36
2017-09-28T05:54:04.178Z,14.32
2017-09-28T05:55:03.869Z,14.33
2017-09-28T05:56:03.866Z,14.41
2017-09-28T05:57:04.179Z,14.41
2017-09-28T05:58:04.177Z,14.5
2017-09-28T05:59:04.180Z,14.43
2017-09-28T06:00:04.171Z,14.45
2017-09-28T06:01:03.876Z,14.47
2017-09-28T06:02:04.170Z,14.59
2017-09-28T06:03:04.172Z,14.45
2017-09-28T06:04:03.859Z,14.5
2017-09-28T06:05:04.169Z,14.45
2017-09-28T06:06:04.173Z,14.45
2017-09-28T06:07:04.173Z,14.44
2017-09-28T06:08:03.863Z,14.48
2017-09-28T06:09:04.196Z,14.36
2017-09-28T06:10:04.197Z,14.47
2017-09-28T06:11:04.170Z,14.35
2017-09-28T06:12:03.541Z,14.37
2017-09-28T06:13:03.848Z,14.35
2017-09-28T06:14:04.158Z,14.36
2017-09-28T06:15:04.170Z,14.32
2017-09-28T06:16:04.155Z,14.44
2017-09-28T06:17:04.153Z,14.5
2017-09-28T06:18:04.182Z,14.6
2017-09-28T06:19:04.162Z,14.53
2017-09-28T06:20:03.847Z,14.62
2017-09-28T06:21:03.841Z,14.47
2017-09-28T06:22:04.151Z,14.48
2017-09-28T06:23:04.155Z,14.47
2017-09-28T06:24:04.149Z,14.45
2017-09-28T06:25:04.146Z,14.37
2017-09-28T06:26:03.842Z,14.4
2017-09-28T06:27:04.143Z,14.33
2017-09-28T06:28:04.162Z,14.33
2017-09-28T06:29:04.177Z,14.33
2017-09-28T06:30:04.139Z,14.47
2017-09-28T06:31:04.139Z,14.44
2017-09-28T06:32:03.832Z,14.51
2017-09-28T06:33:03.825Z,14.6
2017-09-28T06:34:04.144Z,14.62
2017-09-28T06:35:04.141Z,14.82
2017-09-28T06:36:04.172Z,14.86
2017-09-28T06:37:04.132Z,14.91
2017-09-28T06:38:04.130Z,15.02
2017-09-28T06:39:03.818Z,14.89
2017-09-28T06:40:04.142Z,14.91
2017-09-28T06:41:03.857Z,14.89
2017-09-28T06:42:04.134Z,14.96
2017-09-28T06:43:03.819Z,14.99
2017-09-28T06:44:03.820Z,14.99
2017-09-28T06:45:03.814Z,15.03
2017-09-28T06:46:03.825Z,15.04
2017-09-28T06:47:03.817Z,15.03
2017-09-28T06:48:04.127Z,15.11
2017-09-28T06:49:03.814Z,15.15
2017-09-28T06:50:03.815Z,15.1
2017-09-28T06:51:04.128Z,15.21
2017-09-28T06:52:04.123Z,15.18
2017-09-28T06:53:04.126Z,15.27
2017-09-28T06:54:03.815Z,15.28
2017-09-28T06:55:03.819Z,15.27
2017-09-28T06:56:03.818Z,15.21
2017-09-28T06:57:04.126Z,15.24
2017-09-28T06:58:03.808Z,15.39
2017-09-28T06:59:04.124Z,15.51
2017-09-28T07:00:04.114Z,15.51
2017-09-28T07:01:04.124Z,15.65
2017-09-28T07:02:04.115Z,15.76
2017-09-28T07:03:03.495Z,15.84
2017-09-28T07:04:05.118Z,16
2017-09-28T07:05:04.120Z,16.04
2017-09-28T07:06:03.497Z,16.15
2017-09-28T07:07:03.822Z,16.31
2017-09-28T07:08:03.500Z,16.32
2017-09-28T07:09:03.802Z,16.46
2017-09-28T07:10:03.804Z,16.54
2017-09-28T07:11:03.810Z,16.64
2017-09-28T07:12:03.813Z,16.81
2017-09-28T07:13:03.804Z,16.9
2017-09-28T07:14:04.121Z,17.05
2017-09-28T07:15:03.815Z,17.05
2017-09-28T07:16:03.509Z,17.06
2017-09-28T07:17:03.808Z,17.04
2017-09-28T07:18:04.117Z,17.23
2017-09-28T07:19:03.807Z,17.41
2017-09-28T07:20:04.135Z,17.29
2017-09-28T07:21:03.502Z,17.39
2017-09-28T07:22:04.131Z,17.41
2017-09-28T07:23:04.134Z,17.56
2017-09-28T07:24:04.137Z,17.67
2017-09-28T07:25:04.123Z,17.68
2017-09-28T07:26:03.819Z,17.79
2017-09-28T07:27:04.144Z,17.85
2017-09-28T07:28:04.129Z,18.05
2017-09-28T07:29:04.133Z,18.08
2017-09-28T07:30:04.132Z,18.07
2017-09-28T07:31:04.140Z,18.05
2017-09-28T07:32:04.132Z,18.04
2017-09-28T07:33:04.133Z,18.07
2017-09-28T07:34:04.406Z,18.05
2017-09-28T07:35:04.136Z,17.87
2017-09-28T07:36:04.139Z,17.89
2017-09-28T07:37:04.144Z,17.9
2017-09-28T07:38:03.845Z,18.13
2017-09-28T07:39:04.153Z,18.33
2017-09-28T07:40:04.149Z,18.62
2017-09-28T07:41:04.155Z,18.63
2017-09-28T07:42:03.530Z,18.74
2017-09-28T07:43:03.849Z,18.89
2017-09-28T07:44:04.171Z,18.81
2017-09-28T07:45:03.850Z,18.81
2017-09-28T07:46:04.177Z,18.71
2017-09-28T07:47:04.163Z,18.53
2017-09-28T07:48:04.173Z,18.56
2017-09-28T07:49:03.854Z,18.47
2017-09-28T07:50:04.171Z,18.31
2017-09-28T07:51:04.174Z,18.29
2017-09-28T07:52:04.193Z,18.23
2017-09-28T07:53:03.875Z,18.22
2017-09-28T07:54:03.872Z,18.13
2017-09-28T07:55:04.194Z,18.1
2017-09-28T07:56:03.571Z,18.2
2017-09-28T07:57:03.874Z,18.37
2017-09-28T07:58:03.884Z,18.44
2017-09-28T07:59:04.189Z,18.66
2017-09-28T08:00:03.889Z,18.86
2017-09-28T08:01:03.885Z,18.96
2017-09-28T08:02:03.890Z,19.07
2017-09-28T08:03:04.196Z,19.18
2017-09-28T08:04:05.459Z,19.34
2017-09-28T08:05:03.894Z,19.41
2017-09-28T08:06:04.208Z,19.37
2017-09-28T08:07:04.214Z,19.36
2017-09-28T08:08:03.901Z,19.29
2017-09-28T08:09:03.593Z,19.15
2017-09-28T08:10:03.914Z,19.15
2017-09-28T08:11:03.917Z,19.11
2017-09-28T08:12:04.224Z,19.09
2017-09-28T08:13:04.265Z,19.11
2017-09-28T08:14:03.925Z,19.19
2017-09-28T08:15:03.918Z,19.12
2017-09-28T08:16:04.241Z,19.18
2017-09-28T08:17:03.933Z,19.16
2017-09-28T08:18:03.939Z,19.07
2017-09-28T08:19:04.250Z,19
2017-09-28T08:20:03.640Z,19.07
2017-09-28T08:21:03.944Z,19.11
2017-09-28T08:22:03.946Z,19.18
2017-09-28T08:23:04.259Z,19.18
2017-09-28T08:24:04.262Z,19.11
2017-09-28T08:25:03.649Z,19.18
2017-09-28T08:26:04.266Z,19.18
2017-09-28T08:27:03.962Z,19.15
2017-09-28T08:28:03.652Z,19.07
2017-09-28T08:29:04.280Z,19.09
2017-09-28T08:30:04.315Z,19.07
2017-09-28T08:31:04.278Z,19.09
2017-09-28T08:32:03.664Z,19.07
2017-09-28T08:33:03.976Z,19.04
2017-09-28T08:34:03.983Z,19.08
2017-09-28T08:35:03.982Z,19.15
2017-09-28T08:36:04.341Z,19.16
2017-09-28T08:37:03.988Z,19.22
2017-09-28T08:38:04.299Z,19.15
2017-09-28T08:39:04.299Z,19.11
2017-09-28T08:40:03.992Z,19.16
2017-09-28T08:41:04.303Z,19.21
2017-09-28T08:42:03.698Z,19.19
2017-09-28T08:43:03.696Z,19.26
2017-09-28T08:44:04.007Z,19.22
2017-09-28T08:45:04.012Z,19.26
2017-09-28T08:46:04.321Z,19.27
2017-09-28T08:47:04.011Z,19.37
2017-09-28T08:48:04.011Z,19.3
2017-09-28T08:49:04.365Z,19.31
2017-09-28T08:50:04.338Z,19.34
2017-09-28T08:51:04.330Z,19.47
2017-09-28T08:52:03.731Z,19.55
2017-09-28T08:53:04.041Z,19.58
2017-09-28T08:54:04.038Z,19.71
2017-09-28T08:55:04.347Z,19.85
2017-09-28T08:56:04.343Z,19.84
2017-09-28T08:57:03.732Z,19.91
2017-09-28T08:58:04.349Z,19.95
2017-09-28T08:59:04.046Z,20.04
2017-09-28T09:00:04.355Z,20.03
2017-09-28T09:01:03.751Z,20.1
2017-09-28T09:02:04.051Z,20.18
2017-09-28T09:03:04.059Z,20.24
2017-09-28T09:04:03.758Z,20.18
2017-09-28T09:05:08.171Z,20.28
2017-09-28T09:06:04.065Z,20.26
2017-09-28T09:07:04.091Z,20.37
2017-09-28T09:08:04.095Z,20.37
2017-09-28T09:09:04.391Z,20.34
2017-09-28T09:10:04.083Z,20.32
2017-09-28T09:11:04.394Z,20.25
2017-09-28T09:12:04.396Z,20.29
2017-09-28T09:13:04.086Z,20.36
2017-09-28T09:14:04.441Z,20.41
2017-09-28T09:15:04.101Z,20.4
2017-09-28T09:16:04.403Z,20.39
2017-09-28T09:17:04.100Z,20.39
2017-09-28T09:18:03.803Z,20.28
2017-09-28T09:19:03.807Z,20.36
2017-09-28T09:20:04.415Z,20.41
2017-09-28T09:21:04.108Z,20.5
2017-09-28T09:22:04.117Z,20.52
2017-09-28T09:23:04.424Z,20.43
2017-09-28T09:24:04.120Z,20.52
2017-09-28T09:25:04.139Z,20.36
2017-09-28T09:26:04.442Z,20.52
2017-09-28T09:27:04.446Z,20.5
2017-09-28T09:28:04.150Z,20.52
2017-09-28T09:29:04.450Z,20.62
2017-09-28T09:30:04.459Z,20.56
2017-09-28T09:31:04.170Z,20.52
2017-09-28T09:32:04.461Z,20.48
2017-09-28T09:33:04.464Z,20.41
2017-09-28T09:34:04.147Z,20.37
2017-09-28T09:35:06.259Z,20.31
2017-09-28T09:36:04.154Z,20.22
2017-09-28T09:37:04.467Z,20.19
2017-09-28T09:38:04.165Z,20.19
2017-09-28T09:39:04.478Z,20.18
2017-09-28T09:40:04.481Z,20.18
2017-09-28T09:41:04.481Z,20.29
2017-09-28T09:42:04.177Z,20.34
2017-09-28T09:43:04.182Z,20.36
2017-09-28T09:44:04.196Z,20.51
2017-09-28T09:45:04.494Z,20.63
2017-09-28T09:46:04.186Z,20.7
2017-09-28T09:47:04.500Z,20.9
2017-09-28T09:48:04.505Z,21.06
2017-09-28T09:49:04.514Z,21.22
2017-09-28T09:50:04.523Z,21.25
2017-09-28T09:51:04.593Z,21.37
2017-09-28T09:52:04.214Z,21.45
2017-09-28T09:53:04.211Z,21.52
2017-09-28T09:54:03.913Z,21.54
2017-09-28T09:55:04.224Z,21.58
2017-09-28T09:56:04.238Z,21.64
2017-09-28T09:57:04.535Z,21.67
2017-09-28T09:58:04.234Z,21.67
2017-09-28T09:59:03.926Z,21.67
2017-09-28T10:00:04.248Z,21.8
2017-09-28T10:01:03.967Z,21.72
2017-09-28T10:02:04.588Z,21.7
2017-09-28T10:03:04.552Z,21.73
2017-09-28T10:04:04.261Z,21.8
2017-09-28T10:05:04.610Z,21.77
2017-09-28T10:06:04.785Z,21.8
2017-09-28T10:07:04.023Z,21.8
2017-09-28T10:08:04.279Z,21.96
2017-09-28T10:09:04.267Z,21.92
2017-09-28T10:10:04.279Z,21.96
2017-09-28T10:11:04.587Z,21.89
2017-09-28T10:12:04.286Z,21.93
2017-09-28T10:13:04.293Z,21.92
2017-09-28T10:14:04.630Z,21.92
2017-09-28T10:15:04.314Z,21.98
2017-09-28T10:16:04.623Z,21.98
2017-09-28T10:17:04.626Z,22
2017-09-28T10:18:04.626Z,21.98
2017-09-28T10:19:04.007Z,21.91
2017-09-28T10:20:04.003Z,21.85
2017-09-28T10:21:04.324Z,22.02
2017-09-28T10:22:04.329Z,21.88
2017-09-28T10:23:04.326Z,21.91
2017-09-28T10:24:04.652Z,21.92
2017-09-28T10:25:04.029Z,21.85
2017-09-28T10:26:04.661Z,21.98
2017-09-28T10:27:04.346Z,22.02
2017-09-28T10:28:04.044Z,22.04
2017-09-28T10:29:04.371Z,21.93
2017-09-28T10:30:04.054Z,22.02
2017-09-28T10:31:04.676Z,22
2017-09-28T10:32:04.372Z,21.93
2017-09-28T10:33:04.391Z,21.92
2017-09-28T10:34:04.379Z,22.06
2017-09-28T10:35:04.682Z,21.96
2017-09-28T10:36:06.261Z,21.88
2017-09-28T10:37:04.698Z,21.96
2017-09-28T10:38:04.460Z,21.95
2017-09-28T10:39:04.085Z,21.85
2017-09-28T10:40:04.393Z,22.02
2017-09-28T10:41:04.396Z,21.89
2017-09-28T10:42:04.453Z,21.88
2017-09-28T10:43:04.460Z,21.72
2017-09-28T10:44:04.728Z,21.62
2017-09-28T10:45:04.724Z,21.55
2017-09-28T10:46:04.739Z,21.5
2017-09-28T10:47:04.428Z,21.5
2017-09-28T10:48:04.425Z,21.46
2017-09-28T10:49:04.428Z,21.46
2017-09-28T10:50:04.744Z,21.39
2017-09-28T10:51:06.037Z,21.43
2017-09-28T10:52:04.437Z,21.42
2017-09-28T10:53:04.449Z,21.48
2017-09-28T10:54:04.443Z,21.54
2017-09-28T10:55:04.141Z,21.51
2017-09-28T10:56:04.450Z,21.5
2017-09-28T10:57:04.767Z,21.6
2017-09-28T10:58:04.838Z,21.7
2017-09-28T10:59:04.497Z,21.82
2017-09-28T11:00:04.467Z,21.83
2017-09-28T11:01:04.786Z,21.99
2017-09-28T11:02:04.164Z,22.02
2017-09-28T11:03:04.475Z,22.06
2017-09-28T11:04:04.790Z,22.17
2017-09-28T11:05:04.497Z,22.23
2017-09-28T11:06:04.810Z,22.29
2017-09-28T11:07:04.189Z,22.29
2017-09-28T11:08:04.498Z,22.47
2017-09-28T11:09:04.198Z,22.57
2017-09-28T11:10:04.508Z,22.66
2017-09-28T11:11:04.827Z,22.44
2017-09-28T11:12:04.237Z,22.53
2017-09-28T11:13:04.825Z,22.29
2017-09-28T11:14:04.825Z,22.29
2017-09-28T11:15:04.857Z,22.36
2017-09-28T11:16:04.219Z,22.32
2017-09-28T11:17:04.612Z,22.28
2017-09-28T11:18:04.616Z,22.25
2017-09-28T11:19:04.903Z,22.17
2017-09-28T11:20:04.229Z,22.11
2017-09-28T11:21:04.873Z,22.07
2017-09-28T11:22:04.931Z,21.91
2017-09-28T11:23:04.940Z,21.99
2017-09-28T11:24:04.870Z,22.07
2017-09-28T11:25:04.564Z,22.1
2017-09-28T11:26:04.263Z,22.22
2017-09-28T11:27:04.885Z,22.25
2017-09-28T11:28:04.577Z,22.25
2017-09-28T11:29:04.575Z,22.33
2017-09-28T11:30:04.600Z,22.51
2017-09-28T11:31:04.897Z,22.45
2017-09-28T11:32:04.909Z,22.47
2017-09-28T11:33:04.909Z,22.5
2017-09-28T11:34:04.904Z,22.59
2017-09-28T11:35:04.290Z,22.68
2017-09-28T11:36:04.918Z,22.73
2017-09-28T11:37:04.607Z,22.8
2017-09-28T11:38:04.622Z,22.75
2017-09-28T11:39:04.622Z,22.85
2017-09-28T11:40:04.314Z,22.98
2017-09-28T11:41:04.629Z,23.03
2017-09-28T11:42:04.643Z,23.18
2017-09-28T11:43:04.939Z,23.4
2017-09-28T11:44:04.332Z,23.36
2017-09-28T11:45:04.642Z,23.54
2017-09-28T11:46:04.336Z,23.47
2017-09-28T11:47:04.959Z,23.48
2017-09-28T11:48:04.662Z,23.43
2017-09-28T11:49:04.663Z,23.41
2017-09-28T11:50:05.020Z,23.47
2017-09-28T11:51:04.673Z,23.44
2017-09-28T11:52:05.788Z,23.4
2017-09-28T11:53:04.679Z,23.46
2017-09-28T11:54:04.985Z,23.47
2017-09-28T11:55:04.694Z,23.43
2017-09-28T11:56:04.998Z,23.47
2017-09-28T11:57:04.700Z,23.47
2017-09-28T11:58:05.006Z,23.46
2017-09-28T11:59:04.710Z,23.54
2017-09-28T12:00:04.706Z,23.54
2017-09-28T12:01:05.032Z,23.58
2017-09-28T12:02:04.726Z,23.54
2017-09-28T12:03:04.723Z,23.65
2017-09-28T12:04:05.037Z,23.65
2017-09-28T12:05:04.730Z,23.58
2017-09-28T12:06:04.737Z,23.56
2017-09-28T12:07:06.751Z,23.58
2017-09-28T12:08:04.753Z,23.54
2017-09-28T12:09:04.767Z,23.55
2017-09-28T12:10:04.766Z,23.5
2017-09-28T12:11:05.188Z,23.51
2017-09-28T12:12:05.256Z,23.58
2017-09-28T12:13:05.095Z,23.63
2017-09-28T12:14:05.078Z,23.78
2017-09-28T12:15:04.784Z,23.73
2017-09-28T12:16:04.928Z,23.81
2017-09-28T12:17:05.103Z,23.73
2017-09-28T12:18:05.111Z,23.63
2017-09-28T12:19:04.800Z,23.68
2017-09-28T12:20:04.802Z,23.71
2017-09-28T12:21:05.124Z,23.76
2017-09-28T12:22:04.812Z,23.78
2017-09-28T12:23:04.828Z,23.8
2017-09-28T12:24:05.125Z,23.87
2017-09-28T12:25:04.833Z,23.96
2017-09-28T12:26:05.135Z,24.06
2017-09-28T12:27:05.141Z,24.03
2017-09-28T12:28:05.153Z,23.95
2017-09-28T12:29:04.533Z,23.98
2017-09-28T12:30:04.868Z,24.05
2017-09-28T12:31:05.158Z,24.02
2017-09-28T12:32:04.869Z,23.92
2017-09-28T12:33:04.865Z,23.91
2017-09-28T12:34:04.873Z,23.93
2017-09-28T12:35:04.870Z,23.91
2017-09-28T12:36:04.881Z,23.78
2017-09-28T12:37:08.087Z,23.77
2017-09-28T12:38:04.577Z,23.77
2017-09-28T12:39:04.893Z,23.81
2017-09-28T12:40:04.891Z,23.8
2017-09-28T12:41:04.592Z,23.78
2017-09-28T12:42:05.209Z,23.77
2017-09-28T12:43:04.907Z,23.8
2017-09-28T12:44:04.911Z,23.77
2017-09-28T12:45:05.229Z,23.8
2017-09-28T12:46:04.927Z,23.87
2017-09-28T12:47:04.923Z,23.91
2017-09-28T12:48:04.933Z,23.96
2017-09-28T12:49:04.625Z,24.01
2017-09-28T12:50:04.944Z,24.05
2017-09-28T12:51:05.275Z,24.02
2017-09-28T12:52:05.266Z,23.98
2017-09-28T12:53:04.954Z,24.02
2017-09-28T12:54:04.657Z,24.05
2017-09-28T12:55:05.276Z,24.01